createdAt,value
2018-12-03T00:01:26.062Z,1.87
2018-12-03T00:03:53.930Z,2.10
2018-12-03T00:06:21.283Z,1.80
2018-12-03T00:08:48.682Z,1.60
2018-12-03T00:11:16.031Z,1.70
2018-12-03T00:13:43.428Z,2.40
2018-12-03T00:16:10.787Z,2.13
2018-12-03T00:18:38.176Z,1.33
2018-12-03T00:21:05.852Z,2.53
2018-12-03T00:23:33.277Z,1.80
2018-12-03T00:26:00.643Z,1.70
2018-12-03T00:28:28.289Z,1.87
2018-12-03T00:30:56.047Z,1.70
2018-12-03T00:33:23.507Z,1.80
2018-12-03T00:35:50.885Z,1.80
2018-12-03T00:38:18.276Z,1.80
2018-12-03T00:40:45.658Z,1.63
2018-12-03T00:43:13.050Z,1.97
2018-12-03T00:45:40.435Z,1.67
2018-12-03T00:48:07.827Z,1.80
2018-12-03T00:50:35.273Z,1.53
2018-12-03T00:53:02.865Z,1.80
2018-12-03T00:55:30.392Z,1.50
2018-12-03T00:57:58.099Z,2.00
2018-12-03T01:00:25.658Z,1.47
2018-12-03T01:02:53.097Z,1.67
2018-12-03T01:05:20.474Z,1.40
2018-12-03T01:07:47.825Z,1.97
2018-12-03T01:10:15.251Z,2.20
2018-12-03T01:12:42.626Z,1.67
2018-12-03T01:15:10.031Z,1.50
2018-12-03T01:17:37.550Z,1.57
2018-12-03T01:20:07.702Z,1.83
2018-12-03T01:22:35.066Z,1.50
2018-12-03T01:25:02.614Z,1.43
2018-12-03T01:27:30.172Z,1.80
2018-12-03T01:29:58.004Z,1.47
2018-12-03T01:32:25.470Z,1.60
2018-12-03T01:34:52.853Z,1.50
2018-12-03T01:37:20.214Z,1.53
2018-12-03T01:39:47.614Z,1.57
2018-12-03T01:42:15.017Z,1.60
2018-12-03T01:44:42.408Z,1.50
2018-12-03T01:47:09.786Z,1.43
2018-12-03T01:49:37.326Z,1.70
2018-12-03T01:52:04.741Z,1.93
2018-12-03T01:54:32.200Z,1.50
2018-12-03T01:56:59.801Z,1.47
2018-12-03T01:59:27.639Z,1.67
2018-12-03T02:01:55.022Z,2.10
2018-12-03T02:04:22.409Z,1.20
2018-12-03T02:06:49.831Z,1.87
2018-12-03T02:09:17.227Z,1.47
2018-12-03T02:11:44.637Z,1.40
2018-12-03T02:14:12.032Z,1.70
2018-12-03T02:16:39.404Z,1.10
2018-12-03T02:19:06.858Z,1.20
2018-12-03T02:21:34.384Z,1.33
2018-12-03T02:24:01.877Z,1.53
2018-12-03T02:26:29.442Z,1.43
2018-12-03T02:28:56.991Z,1.10
2018-12-03T02:31:24.384Z,1.00
2018-12-03T02:33:51.776Z,1.17
2018-12-03T02:36:19.136Z,1.50
2018-12-03T02:38:46.530Z,1.03
2018-12-03T02:41:13.920Z,1.20
2018-12-03T02:43:41.309Z,1.10
2018-12-03T02:46:08.880Z,1.50
2018-12-03T02:48:36.266Z,1.67
2018-12-03T02:51:03.707Z,1.20
2018-12-03T02:53:31.638Z,0.70
2018-12-03T02:55:59.232Z,1.10
2018-12-03T02:58:26.644Z,1.20
2018-12-03T03:00:54.037Z,1.10
2018-12-03T03:03:21.472Z,1.70
2018-12-03T03:05:48.919Z,1.20
2018-12-03T03:08:16.359Z,1.33
2018-12-03T03:10:50.308Z,1.20
2018-12-03T03:13:17.670Z,1.10
2018-12-03T03:15:45.111Z,1.27
2018-12-03T03:18:12.500Z,1.10
2018-12-03T03:20:39.996Z,1.20
2018-12-03T03:23:07.398Z,1.00
2018-12-03T03:25:34.945Z,1.03
2018-12-03T03:28:02.672Z,0.93
2018-12-03T03:30:30.675Z,0.90
2018-12-03T03:32:58.155Z,1.20
2018-12-03T03:35:25.565Z,1.23
2018-12-03T03:37:52.931Z,1.30
2018-12-03T03:40:20.323Z,0.93
2018-12-03T03:42:47.994Z,1.17
2018-12-03T03:45:18.163Z,1.10
2018-12-03T03:47:45.752Z,1.00
2018-12-03T03:50:13.150Z,0.93
2018-12-03T03:52:40.705Z,0.90
2018-12-03T03:55:08.685Z,0.90
2018-12-03T03:57:36.220Z,1.23
2018-12-03T04:00:04.468Z,0.80
2018-12-03T04:02:32.244Z,1.07
2018-12-03T04:05:00.006Z,1.03
2018-12-03T04:07:27.442Z,0.90
2018-12-03T04:09:55.022Z,0.77
2018-12-03T04:12:22.371Z,1.20
2018-12-03T04:14:49.803Z,0.70
2018-12-03T04:17:17.189Z,1.20
2018-12-03T04:19:44.581Z,0.93
2018-12-03T04:22:11.978Z,0.80
2018-12-03T04:24:39.458Z,0.60
2018-12-03T04:27:06.947Z,0.83
2018-12-03T04:29:34.487Z,0.70
2018-12-03T04:32:02.365Z,0.73
2018-12-03T04:34:30.002Z,0.70
2018-12-03T04:36:57.478Z,0.80
2018-12-03T04:39:24.914Z,0.80
2018-12-03T04:41:52.307Z,1.00
2018-12-03T04:44:19.693Z,0.90
2018-12-03T04:46:47.152Z,0.90
2018-12-03T04:49:14.549Z,0.83
2018-12-03T04:51:42.082Z,0.80
2018-12-03T04:54:09.464Z,0.70
2018-12-03T04:57:06.300Z,0.70
2018-12-03T04:59:33.358Z,0.70
2018-12-03T05:02:00.313Z,0.70
2018-12-03T05:04:27.099Z,0.80
2018-12-03T05:06:53.886Z,0.73
2018-12-03T05:09:20.680Z,0.60
2018-12-03T05:11:47.484Z,0.70
2018-12-03T05:14:14.264Z,0.83
2018-12-03T05:16:41.200Z,0.80
2018-12-03T05:19:08.047Z,0.73
2018-12-03T05:21:34.991Z,0.70
2018-12-03T05:24:04.268Z,0.90
2018-12-03T05:26:30.775Z,0.60
2018-12-03T05:28:57.610Z,0.80
2018-12-03T05:31:24.442Z,0.73
2018-12-03T05:33:51.219Z,0.73
2018-12-03T05:36:18.032Z,0.87
2018-12-03T05:38:44.815Z,0.90
2018-12-03T05:41:11.723Z,0.80
2018-12-03T05:43:38.583Z,1.23
2018-12-03T05:46:05.482Z,1.00
2018-12-03T05:48:32.519Z,1.50
2018-12-03T05:50:59.325Z,4.70
2018-12-03T05:53:26.106Z,2.53
2018-12-03T05:55:52.933Z,4.33
2018-12-03T05:58:19.723Z,3.20
2018-12-03T06:00:46.547Z,2.70
2018-12-03T06:03:13.356Z,2.40
2018-12-03T06:05:40.179Z,2.00
2018-12-03T06:08:06.967Z,3.07
2018-12-03T06:10:34.048Z,2.17
2018-12-03T06:13:00.926Z,3.20
2018-12-03T06:15:27.746Z,2.53
2018-12-03T06:17:54.534Z,2.80
2018-12-03T06:20:21.437Z,2.50
2018-12-03T06:22:48.216Z,2.00
2018-12-03T06:25:15.038Z,1.80
2018-12-03T06:27:41.849Z,1.10
2018-12-03T06:30:09.010Z,1.30
2018-12-03T06:32:35.878Z,1.37
2018-12-03T06:35:03.695Z,1.40
2018-12-03T06:37:30.491Z,1.30
2018-12-03T06:39:57.296Z,1.60
2018-12-03T06:42:24.079Z,1.60
2018-12-03T06:44:50.855Z,1.60
2018-12-03T06:47:17.673Z,1.63
2018-12-03T06:49:44.457Z,1.27
2018-12-03T06:52:11.262Z,1.23
2018-12-03T06:54:38.061Z,1.50
2018-12-03T06:57:05.168Z,1.53
2018-12-03T06:59:31.954Z,1.32
2018-12-03T07:01:58.777Z,1.50
2018-12-03T07:04:25.562Z,1.50
2018-12-03T07:06:52.374Z,2.20
2018-12-03T07:09:19.155Z,1.17
2018-12-03T07:11:45.963Z,1.23
2018-12-03T07:14:12.848Z,2.20
2018-12-03T07:16:39.735Z,1.00
2018-12-03T07:19:06.626Z,1.40
2018-12-03T07:21:33.726Z,0.97
2018-12-03T07:24:00.559Z,1.13
2018-12-03T07:26:27.372Z,1.30
2018-12-03T07:28:54.152Z,1.00
2018-12-03T07:31:20.967Z,1.10
2018-12-03T07:33:47.838Z,1.20
2018-12-03T07:36:14.679Z,1.20
2018-12-03T07:38:41.460Z,2.30
2018-12-03T07:41:08.280Z,1.10
2018-12-03T07:43:35.138Z,1.63
2018-12-03T07:46:01.954Z,1.50
2018-12-03T07:48:28.840Z,1.13
2018-12-03T07:50:55.655Z,1.37
2018-12-03T07:53:22.476Z,0.90
2018-12-03T07:55:49.291Z,1.60
2018-12-03T07:58:16.098Z,1.10
2018-12-03T08:00:43.027Z,0.93
2018-12-03T08:03:09.925Z,0.93
2018-12-03T08:05:36.820Z,1.10
2018-12-03T08:08:03.763Z,1.30
2018-12-03T08:10:30.555Z,1.00
2018-12-03T08:12:57.359Z,1.00
2018-12-03T08:15:24.220Z,1.17
2018-12-03T08:17:51.055Z,1.27
2018-12-03T08:20:17.852Z,1.93
2018-12-03T08:22:44.775Z,1.30
2018-12-03T08:25:11.629Z,1.10
2018-12-03T08:27:38.608Z,0.93
2018-12-03T08:30:06.879Z,0.90
2018-12-03T08:32:33.843Z,1.63
2018-12-03T08:35:00.667Z,1.03
2018-12-03T08:37:27.496Z,1.13
2018-12-03T08:39:54.282Z,1.00
2018-12-03T08:42:21.094Z,1.30
2018-12-03T08:44:47.874Z,1.10
2018-12-03T08:47:14.870Z,1.00
2018-12-03T08:49:41.727Z,0.87
2018-12-03T08:52:10.109Z,0.93
2018-12-03T08:54:36.992Z,0.83
2018-12-03T08:57:04.013Z,0.90
2018-12-03T08:59:31.204Z,0.60
2018-12-03T09:04:55.549Z,1.13
2018-12-03T09:07:22.269Z,1.17
2018-12-03T09:09:48.982Z,0.93
2018-12-03T09:12:15.718Z,1.03
2018-12-03T09:14:42.428Z,1.00
2018-12-03T09:17:11.323Z,0.90
2018-12-03T09:19:38.106Z,1.20
2018-12-03T09:22:05.097Z,0.77
2018-12-03T09:24:31.789Z,1.20
2018-12-03T09:26:58.515Z,1.00
2018-12-03T09:29:25.230Z,0.93
2018-12-03T09:31:51.945Z,0.90
2018-12-03T09:34:18.637Z,0.90
2018-12-03T09:36:45.443Z,0.80
2018-12-03T09:39:12.152Z,0.90
2018-12-03T09:41:39.251Z,1.00
2018-12-03T09:44:06.270Z,0.70
2018-12-03T09:46:33.044Z,0.80
2018-12-03T09:48:59.759Z,0.60
2018-12-03T09:51:28.449Z,1.03
2018-12-03T09:53:55.166Z,0.80
2018-12-03T09:56:23.838Z,1.10
2018-12-03T09:58:50.550Z,0.90
2018-12-03T10:01:17.243Z,1.07
2018-12-03T10:03:43.967Z,0.70
2018-12-03T10:06:10.661Z,0.80
2018-12-03T10:08:37.563Z,0.80
2018-12-03T10:11:04.424Z,0.70
2018-12-03T10:13:31.141Z,0.80
2018-12-03T10:15:57.825Z,0.93
2018-12-03T10:18:24.541Z,1.30
2018-12-03T10:20:51.322Z,0.97
2018-12-03T10:23:18.060Z,0.83
2018-12-03T10:25:44.751Z,0.80
2018-12-03T10:28:11.471Z,0.80
2018-12-03T10:30:38.367Z,0.90
2018-12-03T10:33:05.286Z,1.10
2018-12-03T10:35:32.126Z,0.80
2018-12-03T10:38:00.976Z,0.80
2018-12-03T10:40:27.789Z,0.73
2018-12-03T10:42:54.557Z,0.80
2018-12-03T10:45:26.139Z,1.00
2018-12-03T10:47:52.188Z,0.83
2018-12-03T10:50:22.285Z,1.27
2018-12-03T10:52:47.689Z,0.80
2018-12-03T10:55:14.493Z,0.63
2018-12-03T10:57:41.446Z,0.93
2018-12-03T11:00:09.787Z,0.80
2018-12-03T11:02:38.674Z,1.07
2018-12-03T11:05:12.014Z,0.60
2018-12-03T11:07:39.073Z,0.90
2018-12-03T11:10:05.850Z,0.70
2018-12-03T11:12:32.791Z,0.83
2018-12-03T11:14:59.674Z,0.60
2018-12-03T11:17:28.426Z,0.70
2018-12-03T11:19:55.207Z,1.00
2018-12-03T11:22:21.941Z,0.83
2018-12-03T11:24:48.716Z,1.07
2018-12-03T11:27:15.554Z,0.70
2018-12-03T11:29:42.386Z,1.30
2018-12-03T11:32:09.370Z,0.90
2018-12-03T11:34:36.228Z,0.90
2018-12-03T11:37:03.030Z,0.80
2018-12-03T11:39:31.068Z,0.90
2018-12-03T11:41:57.911Z,0.70
2018-12-03T11:44:24.670Z,0.70
2018-12-03T11:46:51.362Z,0.77
2018-12-03T11:49:18.090Z,0.90
2018-12-03T11:51:44.795Z,0.90
2018-12-03T11:54:11.715Z,0.70
2018-12-03T11:56:38.532Z,0.90
2018-12-03T11:59:05.307Z,0.70
2018-12-03T12:01:31.992Z,0.83
2018-12-03T12:03:58.712Z,0.77
2018-12-03T12:06:25.408Z,1.33
2018-12-03T12:08:52.132Z,0.70
2018-12-03T12:11:18.826Z,0.80
2018-12-03T12:13:45.546Z,1.10
2018-12-03T12:16:12.276Z,0.67
2018-12-03T12:18:39.074Z,1.37
2018-12-03T12:21:05.761Z,0.87
2018-12-03T12:23:32.462Z,0.80
2018-12-03T12:25:59.198Z,1.13
2018-12-03T12:28:25.898Z,0.83
2018-12-03T12:30:52.633Z,1.10
2018-12-03T12:33:19.354Z,0.93
2018-12-03T12:35:46.083Z,1.23
2018-12-03T12:38:12.858Z,0.80
2018-12-03T12:40:39.705Z,0.80
2018-12-03T12:43:06.394Z,0.90
2018-12-03T12:45:33.117Z,1.10
2018-12-03T12:47:59.814Z,0.73
2018-12-03T12:50:26.533Z,1.00
2018-12-03T12:52:53.221Z,1.03
2018-12-03T12:55:19.971Z,0.90
2018-12-03T12:57:46.667Z,0.63
2018-12-03T13:00:13.578Z,0.83
2018-12-03T13:02:40.348Z,0.70
2018-12-03T13:05:07.190Z,0.87
2018-12-03T13:07:33.887Z,1.00
2018-12-03T13:10:00.670Z,0.83
2018-12-03T13:12:27.357Z,1.00
2018-12-03T13:14:54.077Z,0.80
2018-12-03T13:17:20.774Z,1.07
2018-12-03T13:19:47.489Z,0.80
2018-12-03T13:22:14.178Z,0.80
2018-12-03T13:24:40.986Z,0.80
2018-12-03T13:27:07.755Z,0.70
2018-12-03T13:29:34.614Z,0.87
2018-12-03T13:32:01.497Z,0.87
2018-12-03T13:34:28.184Z,0.80
2018-12-03T13:36:54.902Z,0.80
2018-12-03T13:39:23.166Z,0.80
2018-12-03T13:41:50.098Z,0.80
2018-12-03T13:44:16.813Z,0.90
2018-12-03T13:46:43.677Z,0.80
2018-12-03T13:49:10.428Z,0.77
2018-12-03T13:51:37.230Z,1.00
2018-12-03T13:54:04.496Z,0.60
2018-12-03T13:56:31.229Z,0.90
2018-12-03T13:58:57.926Z,1.00
2018-12-03T14:01:24.648Z,1.20
2018-12-03T14:03:53.313Z,0.90
2018-12-03T14:06:20.170Z,1.40
2018-12-03T14:08:46.886Z,0.80
2018-12-03T14:11:13.801Z,0.67
2018-12-03T14:13:40.717Z,0.80
2018-12-03T14:16:07.446Z,1.17
2018-12-03T14:18:34.218Z,1.23
2018-12-03T14:21:00.939Z,1.17
2018-12-03T14:23:27.636Z,1.20
2018-12-03T14:25:54.363Z,0.93
2018-12-03T14:28:21.116Z,0.70
2018-12-03T14:30:47.860Z,0.97
2018-12-03T14:33:14.766Z,0.87
2018-12-03T14:35:41.710Z,0.90
2018-12-03T14:38:08.461Z,0.60
2018-12-03T14:40:35.161Z,0.90
2018-12-03T14:43:01.883Z,0.90
2018-12-03T14:45:28.577Z,0.90
2018-12-03T14:47:56.280Z,1.00
2018-12-03T14:50:22.981Z,0.83
2018-12-03T14:52:49.701Z,1.03
2018-12-03T14:55:16.400Z,0.97
2018-12-03T14:57:43.307Z,1.03
2018-12-03T15:00:12.240Z,0.60
2018-12-03T15:02:38.952Z,0.80
2018-12-03T15:05:05.724Z,0.83
2018-12-03T15:07:32.442Z,1.00
2018-12-03T15:09:59.133Z,0.70
2018-12-03T15:12:25.847Z,1.00
2018-12-03T15:14:52.534Z,0.97
2018-12-03T15:17:19.259Z,1.00
2018-12-03T15:19:46.033Z,0.67
2018-12-03T15:22:12.818Z,0.83
2018-12-03T15:24:39.552Z,0.80
2018-12-03T15:27:06.272Z,0.70
2018-12-03T15:29:32.967Z,1.23
2018-12-03T15:31:59.689Z,0.70
2018-12-03T15:34:26.376Z,1.00
2018-12-03T15:36:53.103Z,1.00
2018-12-03T15:39:19.805Z,0.90
2018-12-03T15:41:46.525Z,0.80
2018-12-03T15:44:13.311Z,1.10
2018-12-03T15:46:40.042Z,0.80
2018-12-03T15:49:06.760Z,0.70
2018-12-03T15:51:33.455Z,0.70
2018-12-03T15:54:00.169Z,0.87
2018-12-03T15:56:26.854Z,0.93
2018-12-03T15:58:53.609Z,0.70
2018-12-03T16:01:20.301Z,0.80
2018-12-03T16:03:47.051Z,0.87
2018-12-03T16:06:13.942Z,0.70
2018-12-03T16:08:40.723Z,0.93
2018-12-03T16:11:07.410Z,0.97
2018-12-03T16:13:34.133Z,0.70
2018-12-03T16:16:00.829Z,0.80
2018-12-03T16:18:27.574Z,1.07
2018-12-03T16:20:54.262Z,0.90
2018-12-03T16:23:20.991Z,0.80
2018-12-03T16:25:47.677Z,0.90
2018-12-03T16:28:14.507Z,0.70
2018-12-03T16:30:41.269Z,0.80
2018-12-03T16:33:08.001Z,0.90
2018-12-03T16:35:34.684Z,0.80
2018-12-03T16:38:02.338Z,1.03
2018-12-03T16:40:29.029Z,1.00
2018-12-03T16:42:55.753Z,0.90
2018-12-03T16:45:22.510Z,0.80
2018-12-03T16:47:49.385Z,1.00
2018-12-03T16:50:16.196Z,0.80
2018-12-03T16:52:43.144Z,0.80
2018-12-03T16:55:09.930Z,0.80
2018-12-03T16:57:36.707Z,0.80
2018-12-03T17:00:04.306Z,0.90
2018-12-03T17:02:30.993Z,0.80
2018-12-03T17:04:57.715Z,1.17
2018-12-03T17:07:24.426Z,0.73
2018-12-03T17:09:51.150Z,0.80
2018-12-03T17:12:17.844Z,0.83
2018-12-03T17:14:44.885Z,0.63
2018-12-03T17:17:11.586Z,0.77
2018-12-03T17:19:38.310Z,0.70
2018-12-03T17:22:05.024Z,1.10
2018-12-03T17:24:31.750Z,0.90
2018-12-03T17:26:58.454Z,1.10
2018-12-03T17:29:25.179Z,1.20
2018-12-03T17:31:51.999Z,0.90
2018-12-03T17:34:18.736Z,0.97
2018-12-03T17:36:45.616Z,1.03
2018-12-03T17:39:12.334Z,1.30
2018-12-03T17:41:39.026Z,1.23
2018-12-03T17:44:05.760Z,1.47
2018-12-03T17:46:32.462Z,1.20
2018-12-03T17:48:59.181Z,1.00
2018-12-03T17:51:25.881Z,1.60
2018-12-03T17:53:52.668Z,1.10
2018-12-03T17:56:19.365Z,1.43
2018-12-03T17:58:46.290Z,1.00
2018-12-03T18:01:13.015Z,0.87
2018-12-03T18:03:39.746Z,1.07
2018-12-03T18:06:06.463Z,1.10
2018-12-03T18:08:33.187Z,1.53
2018-12-03T18:10:59.917Z,1.87
2018-12-03T18:13:26.624Z,2.00
2018-12-03T18:15:53.348Z,1.60
2018-12-03T18:18:20.053Z,1.10
2018-12-03T18:20:46.874Z,1.27
2018-12-03T18:23:13.573Z,1.40
2018-12-03T18:25:40.394Z,1.37
2018-12-03T18:28:07.091Z,2.07
2018-12-03T18:30:33.824Z,1.30
2018-12-03T18:33:00.521Z,1.33
2018-12-03T18:35:27.242Z,1.30
2018-12-03T18:37:53.973Z,2.70
2018-12-03T18:40:21.213Z,1.37
2018-12-03T18:42:48.030Z,1.07
2018-12-03T18:45:14.831Z,0.90
2018-12-03T18:47:42.536Z,0.90
2018-12-03T18:50:10.150Z,2.33
2018-12-03T18:52:36.864Z,1.00
2018-12-03T18:55:03.773Z,2.70
2018-12-03T18:57:30.524Z,1.17
2018-12-03T18:59:57.260Z,1.90
2018-12-03T19:02:24.018Z,1.70
2018-12-03T19:04:50.873Z,1.23
2018-12-03T19:07:17.800Z,2.40
2018-12-03T19:09:44.550Z,1.13
2018-12-03T19:12:11.873Z,1.70
2018-12-03T19:14:38.563Z,1.07
2018-12-03T19:17:05.429Z,1.80
2018-12-03T19:19:32.122Z,1.90
2018-12-03T19:21:58.846Z,1.10
2018-12-03T19:24:25.542Z,2.10
2018-12-03T19:26:52.279Z,1.73
2018-12-03T19:29:19.056Z,1.50
2018-12-03T19:31:45.830Z,2.10
2018-12-03T19:34:12.525Z,1.30
2018-12-03T19:36:39.259Z,1.60
2018-12-03T19:39:05.977Z,1.90
2018-12-03T19:41:32.709Z,1.77
2018-12-03T19:43:59.412Z,1.90
2018-12-03T19:46:26.158Z,1.70
2018-12-03T19:48:52.851Z,1.03
2018-12-03T19:51:19.653Z,1.93
2018-12-03T19:53:46.679Z,1.47
2018-12-03T19:56:13.477Z,1.53
2018-12-03T19:58:40.164Z,1.10
2018-12-03T20:01:06.881Z,1.20
2018-12-03T20:03:33.565Z,2.00
2018-12-03T20:06:00.312Z,1.40
2018-12-03T20:08:27.020Z,1.50
2018-12-03T20:10:53.766Z,1.33
2018-12-03T20:13:20.801Z,1.57
2018-12-03T20:15:47.745Z,1.20
2018-12-03T20:18:14.469Z,1.43
2018-12-03T20:20:41.250Z,1.03
2018-12-03T20:23:07.977Z,1.13
2018-12-03T20:25:35.044Z,1.60
2018-12-03T20:28:07.266Z,1.90
2018-12-03T20:30:32.646Z,1.20
2018-12-03T20:32:59.416Z,1.40
2018-12-03T20:35:26.114Z,2.17
2018-12-03T20:37:52.829Z,1.27
2018-12-03T20:40:19.714Z,1.20
2018-12-03T20:42:46.432Z,1.00
2018-12-03T20:45:15.853Z,1.90
2018-12-03T20:47:42.587Z,1.30
2018-12-03T20:50:10.783Z,1.40
2018-12-03T20:52:37.474Z,1.50
2018-12-03T20:55:05.676Z,1.67
2018-12-03T20:57:32.375Z,1.17
2018-12-03T20:59:59.155Z,1.07
2018-12-03T21:02:25.858Z,1.30
2018-12-03T21:04:52.681Z,0.83
2018-12-03T21:07:19.540Z,1.00
2018-12-03T21:09:46.249Z,0.97
2018-12-03T21:12:12.941Z,1.33
2018-12-03T21:14:39.656Z,1.03
2018-12-03T21:17:06.358Z,1.40
2018-12-03T21:19:33.085Z,1.50
2018-12-03T21:21:59.921Z,1.47
2018-12-03T21:24:26.638Z,1.07
2018-12-03T21:26:53.341Z,1.10
2018-12-03T21:29:20.189Z,1.00
2018-12-03T21:31:46.910Z,1.10
2018-12-03T21:34:13.632Z,1.37
2018-12-03T21:36:40.404Z,1.10
2018-12-03T21:39:07.202Z,1.10
2018-12-03T21:41:33.904Z,1.00
2018-12-03T21:44:00.626Z,1.13
2018-12-03T21:46:27.319Z,1.20
2018-12-03T21:48:54.045Z,1.10
2018-12-03T21:51:20.954Z,1.00
2018-12-03T21:53:47.752Z,1.13
2018-12-03T21:56:14.450Z,0.97
2018-12-03T21:58:41.242Z,1.00
2018-12-03T22:01:07.949Z,1.20
2018-12-03T22:03:34.706Z,1.27
2018-12-03T22:06:01.434Z,1.47
2018-12-03T22:08:28.208Z,1.40
2018-12-03T22:10:54.949Z,1.20
2018-12-03T22:13:21.831Z,1.77
2018-12-03T22:15:48.573Z,1.30
2018-12-03T22:18:15.353Z,1.70
2018-12-03T22:20:42.070Z,1.47
2018-12-03T22:23:08.761Z,1.07
2018-12-03T22:25:35.481Z,1.47
2018-12-03T22:28:02.179Z,1.10
2018-12-03T22:30:28.920Z,0.97
2018-12-03T22:32:55.753Z,1.27
2018-12-03T22:35:22.686Z,1.50
2018-12-03T22:37:49.381Z,1.73
2018-12-03T22:40:17.365Z,1.03
2018-12-03T22:42:44.176Z,0.93
2018-12-03T22:45:10.909Z,1.27
2018-12-03T22:47:37.603Z,1.20
2018-12-03T22:50:04.507Z,1.40
2018-12-03T22:52:31.255Z,2.30
2018-12-03T22:54:57.973Z,1.93
2018-12-03T22:57:24.666Z,1.27
2018-12-03T22:59:51.554Z,1.40
2018-12-03T23:02:18.298Z,1.00
2018-12-03T23:04:45.026Z,1.60
2018-12-03T23:07:11.740Z,1.00
2018-12-03T23:09:38.495Z,1.43
2018-12-03T23:12:05.189Z,3.17
2018-12-03T23:14:31.905Z,1.10
2018-12-03T23:16:58.595Z,1.20
2018-12-03T23:19:25.318Z,0.93
2018-12-03T23:21:52.075Z,2.10
2018-12-03T23:24:18.802Z,1.50
2018-12-03T23:26:45.500Z,0.80
2018-12-03T23:29:12.222Z,1.10
2018-12-03T23:31:38.910Z,1.30
2018-12-03T23:34:05.661Z,0.93
2018-12-03T23:36:32.382Z,1.13
2018-12-03T23:38:59.073Z,0.90
2018-12-03T23:41:25.794Z,1.27
2018-12-03T23:43:52.566Z,1.20
2018-12-03T23:46:19.354Z,1.20
2018-12-03T23:48:46.065Z,1.00
2018-12-03T23:51:12.773Z,1.10
2018-12-03T23:53:39.461Z,1.07
2018-12-03T23:56:06.182Z,1.23
2018-12-03T23:58:32.877Z,1.47
